sensor_id;sensor_type;location;lat;lon;timestamp;pressure;altitude;pressure_sealevel;temperature;humidity
61870;BME280;47810;42.264;23.826;2023-05-03T00:02:08;94254.16;;;10.31;52.74
61870;BME280;47810;42.264;23.826;2023-05-03T00:04:34;94252.00;;;10.22;53.11
61870;BME280;47810;42.264;23.826;2023-05-03T00:07:00;94261.78;;;10.20;52.93
61870;BME280;47810;42.264;23.826;2023-05-03T00:09:26;94267.25;;;10.17;53.39
61870;BME280;47810;42.264;23.826;2023-05-03T00:11:51;94276.97;;;10.16;53.18
61870;BME280;47810;42.264;23.826;2023-05-03T00:14:17;94280.28;;;10.04;53.27
61870;BME280;47810;42.264;23.826;2023-05-03T00:16:43;94267.38;;;9.99;54.79
61870;BME280;47810;42.264;23.826;2023-05-03T00:19:08;94255.88;;;10.00;55.43
61870;BME280;47810;42.264;23.826;2023-05-03T00:21:34;94253.72;;;10.07;56.26
61870;BME280;47810;42.264;23.826;2023-05-03T00:24:00;94242.94;;;10.12;56.61
61870;BME280;47810;42.264;23.826;2023-05-03T00:26:26;94239.16;;;10.16;57.31
61870;BME280;47810;42.264;23.826;2023-05-03T00:28:52;94237.47;;;10.15;57.65
61870;BME280;47810;42.264;23.826;2023-05-03T00:31:18;94251.59;;;10.14;57.85
61870;BME280;47810;42.264;23.826;2023-05-03T00:33:44;94250.91;;;10.10;58.58
61870;BME280;47810;42.264;23.826;2023-05-03T00:36:10;94243.59;;;10.15;56.36
61870;BME280;47810;42.264;23.826;2023-05-03T00:38:36;94240.03;;;10.00;57.54
61870;BME280;47810;42.264;23.826;2023-05-03T00:41:02;94240.47;;;10.09;57.91
61870;BME280;47810;42.264;23.826;2023-05-03T00:43:28;94239.69;;;10.07;56.78
61870;BME280;47810;42.264;23.826;2023-05-03T00:45:53;94239.53;;;10.10;57.51
61870;BME280;47810;42.264;23.826;2023-05-03T00:48:19;94237.13;;;10.21;55.14
61870;BME280;47810;42.264;23.826;2023-05-03T00:50:45;94234.41;;;10.07;57.56
61870;BME280;47810;42.264;23.826;2023-05-03T00:53:11;94242.25;;;10.08;55.49
61870;BME280;47810;42.264;23.826;2023-05-03T00:55:37;94227.97;;;9.96;54.82
61870;BME280;47810;42.264;23.826;2023-05-03T00:58:02;94231.25;;;9.70;56.18
61870;BME280;47810;42.264;23.826;2023-05-03T01:00:28;94237.53;;;9.51;55.75
61870;BME280;47810;42.264;23.826;2023-05-03T01:02:53;94239.03;;;9.40;55.59
61870;BME280;47810;42.264;23.826;2023-05-03T01:05:20;94236.84;;;9.32;56.71
61870;BME280;47810;42.264;23.826;2023-05-03T01:17:52;94245.50;;;9.18;55.27
61870;BME280;47810;42.264;23.826;2023-05-03T01:20:21;94249.88;;;9.18;56.10
61870;BME280;47810;42.264;23.826;2023-05-03T01:22:59;94243.25;;;9.10;55.84
61870;BME280;47810;42.264;23.826;2023-05-03T01:25:27;94236.13;;;9.13;55.50
61870;BME280;47810;42.264;23.826;2023-05-03T01:27:53;94234.44;;;9.27;55.04
61870;BME280;47810;42.264;23.826;2023-05-03T01:30:19;94234.53;;;9.26;56.02
61870;BME280;47810;42.264;23.826;2023-05-03T01:32:51;94221.88;;;9.32;55.07
61870;BME280;47810;42.264;23.826;2023-05-03T01:35:25;94231.41;;;9.35;55.56
61870;BME280;47810;42.264;23.826;2023-05-03T01:37:53;94220.09;;;9.33;54.65
61870;BME280;47810;42.264;23.826;2023-05-03T01:40:42;94221.34;;;9.26;55.33
61870;BME280;47810;42.264;23.826;2023-05-03T01:43:28;94226.03;;;9.37;55.39
61870;BME280;47810;42.264;23.826;2023-05-03T01:46:15;94213.97;;;9.32;54.66
61870;BME280;47810;42.264;23.826;2023-05-03T01:48:59;94209.53;;;9.33;54.03
61870;BME280;47810;42.264;23.826;2023-05-03T01:51:43;94216.41;;;9.20;54.76
61870;BME280;47810;42.264;23.826;2023-05-03T01:54:27;94213.16;;;9.15;54.80
61870;BME280;47810;42.264;23.826;2023-05-03T01:57:11;94200.59;;;9.20;55.00
61870;BME280;47810;42.264;23.826;2023-05-03T01:59:55;94193.81;;;9.16;54.71
61870;BME280;47810;42.264;23.826;2023-05-03T02:02:39;94182.09;;;9.21;54.82
61870;BME280;47810;42.264;23.826;2023-05-03T02:05:23;94188.22;;;9.22;54.72
61870;BME280;47810;42.264;23.826;2023-05-03T02:08:07;94189.03;;;9.06;54.68
61870;BME280;47810;42.264;23.826;2023-05-03T02:10:51;94187.25;;;9.07;55.16
61870;BME280;47810;42.264;23.826;2023-05-03T02:13:36;94190.56;;;9.10;55.03
61870;BME280;47810;42.264;23.826;2023-05-03T02:16:20;94185.41;;;9.09;55.65
61870;BME280;47810;42.264;23.826;2023-05-03T02:19:04;94175.28;;;9.33;53.75
61870;BME280;47810;42.264;23.826;2023-05-03T02:21:49;94185.13;;;9.14;54.78
61870;BME280;47810;42.264;23.826;2023-05-03T02:24:33;94180.53;;;9.17;56.27
61870;BME280;47810;42.264;23.826;2023-05-03T02:27:18;94181.56;;;9.30;54.64
61870;BME280;47810;42.264;23.826;2023-05-03T02:30:02;94180.88;;;9.27;55.60
61870;BME280;47810;42.264;23.826;2023-05-03T02:32:47;94185.16;;;9.45;53.24
61870;BME280;47810;42.264;23.826;2023-05-03T02:35:31;94187.34;;;9.37;53.42
61870;BME280;47810;42.264;23.826;2023-05-03T02:38:14;94186.31;;;9.24;54.30
61870;BME280;47810;42.264;23.826;2023-05-03T02:40:59;94198.25;;;9.31;53.03
61870;BME280;47810;42.264;23.826;2023-05-03T02:43:43;94196.69;;;9.27;53.21
61870;BME280;47810;42.264;23.826;2023-05-03T02:46:27;94208.00;;;9.29;53.71
61870;BME280;47810;42.264;23.826;2023-05-03T02:49:11;94204.59;;;9.27;53.22
61870;BME280;47810;42.264;23.826;2023-05-03T02:51:55;94210.50;;;9.32;53.01
61870;BME280;47810;42.264;23.826;2023-05-03T02:54:40;94209.13;;;9.25;53.59
61870;BME280;47810;42.264;23.826;2023-05-03T02:57:25;94206.56;;;9.23;54.29
61870;BME280;47810;42.264;23.826;2023-05-03T03:00:11;94216.25;;;9.23;53.62
61870;BME280;47810;42.264;23.826;2023-05-03T03:02:57;94218.59;;;9.12;53.86
61870;BME280;47810;42.264;23.826;2023-05-03T03:05:42;94215.53;;;9.03;55.48
61870;BME280;47810;42.264;23.826;2023-05-03T03:08:07;94222.97;;;9.13;54.22
61870;BME280;47810;42.264;23.826;2023-05-03T03:10:51;94230.94;;;9.11;53.84
61870;BME280;47810;42.264;23.826;2023-05-03T03:13:36;94231.50;;;9.00;54.36
61870;BME280;47810;42.264;23.826;2023-05-03T03:16:22;94233.19;;;9.01;54.54
61870;BME280;47810;42.264;23.826;2023-05-03T03:19:06;94235.50;;;9.07;54.40
61870;BME280;47810;42.264;23.826;2023-05-03T03:21:49;94241.88;;;9.03;56.37
61870;BME280;47810;42.264;23.826;2023-05-03T03:24:34;94240.03;;;9.05;55.34
61870;BME280;47810;42.264;23.826;2023-05-03T03:27:18;94240.28;;;9.17;54.74
61870;BME280;47810;42.264;23.826;2023-05-03T03:30:04;94245.41;;;9.20;55.34
61870;BME280;47810;42.264;23.826;2023-05-03T03:32:51;94237.97;;;9.10;54.59
61870;BME280;47810;42.264;23.826;2023-05-03T03:35:35;94263.63;;;9.07;55.57
61870;BME280;47810;42.264;23.826;2023-05-03T03:38:19;94263.81;;;9.04;54.74
61870;BME280;47810;42.264;23.826;2023-05-03T03:41:03;94266.22;;;9.08;53.98
61870;BME280;47810;42.264;23.826;2023-05-03T03:43:47;94272.13;;;8.96;54.42
61870;BME280;47810;42.264;23.826;2023-05-03T03:46:31;94276.16;;;8.86;56.02
61870;BME280;47810;42.264;23.826;2023-05-03T03:49:15;94277.97;;;9.01;54.77
61870;BME280;47810;42.264;23.826;2023-05-03T03:51:40;94276.44;;;8.97;55.45
61870;BME280;47810;42.264;23.826;2023-05-03T03:54:06;94276.59;;;8.94;55.23
61870;BME280;47810;42.264;23.826;2023-05-03T03:56:31;94274.66;;;8.98;55.04
61870;BME280;47810;42.264;23.826;2023-05-03T03:58:57;94287.91;;;8.96;56.25
61870;BME280;47810;42.264;23.826;2023-05-03T04:01:22;94294.72;;;9.00;56.50
61870;BME280;47810;42.264;23.826;2023-05-03T04:03:48;94288.41;;;8.87;57.98
61870;BME280;47810;42.264;23.826;2023-05-03T04:06:14;94292.97;;;8.83;57.94
61870;BME280;47810;42.264;23.826;2023-05-03T04:08:40;94297.28;;;8.84;60.15
61870;BME280;47810;42.264;23.826;2023-05-03T04:11:09;94297.22;;;8.86;59.49
61870;BME280;47810;42.264;23.826;2023-05-03T04:13:36;94302.94;;;8.94;61.04
61870;BME280;47810;42.264;23.826;2023-05-03T04:16:18;94315.41;;;8.91;59.90
61870;BME280;47810;42.264;23.826;2023-05-03T04:18:44;94320.94;;;8.86;61.18
61870;BME280;47810;42.264;23.826;2023-05-03T04:21:09;94325.88;;;8.75;60.91
61870;BME280;47810;42.264;23.826;2023-05-03T04:23:35;94323.69;;;8.66;62.56
61870;BME280;47810;42.264;23.826;2023-05-03T04:26:01;94322.00;;;8.65;64.11
61870;BME280;47810;42.264;23.826;2023-05-03T04:28:26;94318.97;;;8.72;65.24
61870;BME280;47810;42.264;23.826;2023-05-03T04:30:52;94323.88;;;8.80;65.22
61870;BME280;47810;42.264;23.826;2023-05-03T04:33:21;94323.88;;;8.80;64.62
61870;BME280;47810;42.264;23.826;2023-05-03T04:35:49;94328.22;;;8.63;64.32
61870;BME280;47810;42.264;23.826;2023-05-03T04:38:16;94323.56;;;8.51;65.71
61870;BME280;47810;42.264;23.826;2023-05-03T04:40:43;94320.38;;;8.62;66.48
61870;BME280;47810;42.264;23.826;2023-05-03T04:43:08;94322.59;;;8.70;65.94
61870;BME280;47810;42.264;23.826;2023-05-03T04:45:34;94322.22;;;8.60;65.64
61870;BME280;47810;42.264;23.826;2023-05-03T04:47:59;94316.97;;;8.60;66.17
61870;BME280;47810;42.264;23.826;2023-05-03T04:50:26;94318.59;;;8.45;65.26
61870;BME280;47810;42.264;23.826;2023-05-03T04:52:52;94315.44;;;8.37;65.86
61870;BME280;47810;42.264;23.826;2023-05-03T04:55:17;94308.38;;;8.39;64.27
61870;BME280;47810;42.264;23.826;2023-05-03T04:57:43;94315.31;;;8.40;66.09
61870;BME280;47810;42.264;23.826;2023-05-03T05:00:09;94295.47;;;8.52;66.41
61870;BME280;47810;42.264;23.826;2023-05-03T05:02:38;94309.00;;;8.61;66.69
61870;BME280;47810;42.264;23.826;2023-05-03T05:05:04;94305.28;;;8.66;65.71
61870;BME280;47810;42.264;23.826;2023-05-03T05:07:29;94296.31;;;8.52;64.68
61870;BME280;47810;42.264;23.826;2023-05-03T05:09:55;94311.59;;;8.44;65.50
61870;BME280;47810;42.264;23.826;2023-05-03T05:12:20;94304.34;;;8.49;65.25
61870;BME280;47810;42.264;23.826;2023-05-03T05:14:46;94301.41;;;8.38;65.28
61870;BME280;47810;42.264;23.826;2023-05-03T05:17:12;94296.19;;;8.19;67.01
61870;BME280;47810;42.264;23.826;2023-05-03T05:19:37;94298.13;;;8.33;66.48
61870;BME280;47810;42.264;23.826;2023-05-03T05:22:03;94299.53;;;8.40;67.27
61870;BME280;47810;42.264;23.826;2023-05-03T05:24:28;94291.66;;;8.40;68.12
61870;BME280;47810;42.264;23.826;2023-05-03T05:26:54;94287.03;;;8.45;67.42
61870;BME280;47810;42.264;23.826;2023-05-03T05:29:20;94291.97;;;8.51;67.47
61870;BME280;47810;42.264;23.826;2023-05-03T05:31:45;94300.19;;;8.45;66.68
61870;BME280;47810;42.264;23.826;2023-05-03T05:34:11;94290.78;;;8.57;66.38
61870;BME280;47810;42.264;23.826;2023-05-03T05:36:36;94291.34;;;8.46;65.30
61870;BME280;47810;42.264;23.826;2023-05-03T05:39:02;94294.28;;;8.40;66.63
61870;BME280;47810;42.264;23.826;2023-05-03T05:41:28;94298.81;;;8.36;67.07
61870;BME280;47810;42.264;23.826;2023-05-03T05:43:53;94298.94;;;8.52;68.57
61870;BME280;47810;42.264;23.826;2023-05-03T05:46:19;94303.75;;;8.61;66.88
61870;BME280;47810;42.264;23.826;2023-05-03T05:49:02;94316.28;;;8.74;67.52
61870;BME280;47810;42.264;23.826;2023-05-03T05:51:28;94328.72;;;8.88;66.69
61870;BME280;47810;42.264;23.826;2023-05-03T05:53:54;94326.16;;;9.03;65.44
61870;BME280;47810;42.264;23.826;2023-05-03T05:56:20;94324.38;;;9.04;65.81
61870;BME280;47810;42.264;23.826;2023-05-03T05:58:46;94337.63;;;9.02;66.05
61870;BME280;47810;42.264;23.826;2023-05-03T06:01:11;94349.50;;;8.94;66.13
61870;BME280;47810;42.264;23.826;2023-05-03T06:03:37;94343.06;;;8.82;66.50
61870;BME280;47810;42.264;23.826;2023-05-03T06:06:03;94341.75;;;8.91;66.60
61870;BME280;47810;42.264;23.826;2023-05-03T06:08:28;94346.16;;;8.90;65.91
61870;BME280;47810;42.264;23.826;2023-05-03T06:10:54;94342.75;;;8.88;66.51
61870;BME280;47810;42.264;23.826;2023-05-03T06:13:20;94342.38;;;8.96;66.57
61870;BME280;47810;42.264;23.826;2023-05-03T06:15:46;94340.75;;;8.93;67.29
61870;BME280;47810;42.264;23.826;2023-05-03T06:18:11;94338.25;;;9.07;67.45
61870;BME280;47810;42.264;23.826;2023-05-03T06:20:37;94342.97;;;9.18;67.13
61870;BME280;47810;42.264;23.826;2023-05-03T06:23:02;94337.13;;;9.12;67.16
61870;BME280;47810;42.264;23.826;2023-05-03T06:25:28;94339.59;;;9.32;66.72
61870;BME280;47810;42.264;23.826;2023-05-03T06:27:53;94338.97;;;9.27;67.44
61870;BME280;47810;42.264;23.826;2023-05-03T06:30:19;94333.75;;;9.43;67.12
61870;BME280;47810;42.264;23.826;2023-05-03T06:32:46;94326.81;;;9.57;66.24
61870;BME280;47810;42.264;23.826;2023-05-03T06:35:11;94333.78;;;9.59;66.43
61870;BME280;47810;42.264;23.826;2023-05-03T06:37:38;94330.56;;;9.53;65.58
61870;BME280;47810;42.264;23.826;2023-05-03T06:40:03;94314.56;;;9.56;66.19
61870;BME280;47810;42.264;23.826;2023-05-03T06:42:30;94315.31;;;9.59;67.34
61870;BME280;47810;42.264;23.826;2023-05-03T06:44:56;94312.19;;;9.52;67.65
61870;BME280;47810;42.264;23.826;2023-05-03T06:47:22;94313.50;;;9.43;66.37
61870;BME280;47810;42.264;23.826;2023-05-03T06:49:48;94311.66;;;9.45;65.95
61870;BME280;47810;42.264;23.826;2023-05-03T06:52:14;94316.59;;;9.51;66.26
61870;BME280;47810;42.264;23.826;2023-05-03T06:54:40;94320.06;;;9.36;65.87
61870;BME280;47810;42.264;23.826;2023-05-03T06:57:06;94309.97;;;9.44;66.06
61870;BME280;47810;42.264;23.826;2023-05-03T06:59:32;94319.66;;;9.44;65.26
61870;BME280;47810;42.264;23.826;2023-05-03T07:01:57;94319.28;;;9.34;66.30
61870;BME280;47810;42.264;23.826;2023-05-03T07:04:23;94316.84;;;9.14;66.23
61870;BME280;47810;42.264;23.826;2023-05-03T07:06:48;94316.25;;;9.08;66.65
61870;BME280;47810;42.264;23.826;2023-05-03T07:09:14;94316.38;;;9.23;67.25
61870;BME280;47810;42.264;23.826;2023-05-03T07:11:39;94298.38;;;9.31;66.92
61870;BME280;47810;42.264;23.826;2023-05-03T07:14:11;94297.53;;;9.46;66.42
61870;BME280;47810;42.264;23.826;2023-05-03T07:16:37;94299.63;;;9.57;66.85
61870;BME280;47810;42.264;23.826;2023-05-03T07:19:02;94295.38;;;9.86;66.40
61870;BME280;47810;42.264;23.826;2023-05-03T07:21:28;94302.50;;;9.84;66.36
61870;BME280;47810;42.264;23.826;2023-05-03T07:23:53;94292.81;;;10.00;66.28
61870;BME280;47810;42.264;23.826;2023-05-03T07:26:19;94287.16;;;10.38;66.06
61870;BME280;47810;42.264;23.826;2023-05-03T07:28:47;94275.19;;;10.63;64.53
61870;BME280;47810;42.264;23.826;2023-05-03T07:31:12;94273.88;;;10.70;64.00
61870;BME280;47810;42.264;23.826;2023-05-03T07:33:37;94260.13;;;10.79;63.81
61870;BME280;47810;42.264;23.826;2023-05-03T07:36:03;94259.59;;;10.88;63.72
61870;BME280;47810;42.264;23.826;2023-05-03T07:38:29;94265.22;;;10.82;62.75
61870;BME280;47810;42.264;23.826;2023-05-03T07:40:55;94268.78;;;10.81;63.42
61870;BME280;47810;42.264;23.826;2023-05-03T07:43:20;94272.56;;;10.77;63.51
61870;BME280;47810;42.264;23.826;2023-05-03T07:45:48;94277.38;;;10.70;63.75
61870;BME280;47810;42.264;23.826;2023-05-03T07:48:13;94275.97;;;10.79;64.41
61870;BME280;47810;42.264;23.826;2023-05-03T07:50:42;94278.16;;;10.87;64.74
61870;BME280;47810;42.264;23.826;2023-05-03T07:53:11;94278.66;;;11.51;65.68
61870;BME280;47810;42.264;23.826;2023-05-03T07:55:37;94274.69;;;11.86;63.18
61870;BME280;47810;42.264;23.826;2023-05-03T07:58:03;94275.78;;;11.97;62.84
61870;BME280;47810;42.264;23.826;2023-05-03T08:00:29;94289.00;;;12.11;62.95
61870;BME280;47810;42.264;23.826;2023-05-03T08:02:55;94275.59;;;12.54;60.82
61870;BME280;47810;42.264;23.826;2023-05-03T08:05:20;94270.38;;;13.05;60.88
61870;BME280;47810;42.264;23.826;2023-05-03T08:07:46;94264.44;;;12.89;59.75
61870;BME280;47810;42.264;23.826;2023-05-03T08:10:11;94260.28;;;12.72;59.08
61870;BME280;47810;42.264;23.826;2023-05-03T08:12:37;94259.69;;;12.54;60.56
61870;BME280;47810;42.264;23.826;2023-05-03T08:15:03;94252.16;;;13.00;61.04
61870;BME280;47810;42.264;23.826;2023-05-03T08:17:31;94241.13;;;13.45;58.37
61870;BME280;47810;42.264;23.826;2023-05-03T08:19:57;94247.25;;;13.84;58.16
61870;BME280;47810;42.264;23.826;2023-05-03T08:22:22;94250.53;;;14.11;56.62
61870;BME280;47810;42.264;23.826;2023-05-03T08:24:51;94241.09;;;14.31;56.53
61870;BME280;47810;42.264;23.826;2023-05-03T08:27:17;94253.84;;;14.39;55.38
61870;BME280;47810;42.264;23.826;2023-05-03T08:29:43;94252.81;;;14.29;56.39
61870;BME280;47810;42.264;23.826;2023-05-03T08:32:09;94250.66;;;14.34;55.96
61870;BME280;47810;42.264;23.826;2023-05-03T08:34:35;94242.81;;;14.56;54.85
61870;BME280;47810;42.264;23.826;2023-05-03T08:37:00;94235.44;;;14.95;55.56
61870;BME280;47810;42.264;23.826;2023-05-03T08:39:28;94224.88;;;15.40;53.80
61870;BME280;47810;42.264;23.826;2023-05-03T08:41:55;94217.19;;;15.71;52.05
61870;BME280;47810;42.264;23.826;2023-05-03T08:44:22;94213.63;;;16.04;52.33
61870;BME280;47810;42.264;23.826;2023-05-03T08:46:50;94215.34;;;16.37;51.91
61870;BME280;47810;42.264;23.826;2023-05-03T08:49:16;94218.63;;;16.29;50.74
61870;BME280;47810;42.264;23.826;2023-05-03T08:51:43;94224.59;;;16.22;50.63
61870;BME280;47810;42.264;23.826;2023-05-03T08:54:14;94220.69;;;16.37;51.31
61870;BME280;47810;42.264;23.826;2023-05-03T08:56:41;94228.72;;;16.58;50.60
61870;BME280;47810;42.264;23.826;2023-05-03T08:59:07;94233.09;;;16.16;51.44
61870;BME280;47810;42.264;23.826;2023-05-03T09:01:36;94229.50;;;15.94;51.56
61870;BME280;47810;42.264;23.826;2023-05-03T09:04:03;94231.16;;;15.95;51.25
61870;BME280;47810;42.264;23.826;2023-05-03T09:06:29;94217.66;;;15.87;52.60
61870;BME280;47810;42.264;23.826;2023-05-03T09:08:57;94223.19;;;15.95;51.89
61870;BME280;47810;42.264;23.826;2023-05-03T09:11:24;94219.09;;;15.69;51.69
61870;BME280;47810;42.264;23.826;2023-05-03T09:13:50;94227.19;;;15.45;52.47
61870;BME280;47810;42.264;23.826;2023-05-03T09:16:24;94231.16;;;16.06;51.79
61870;BME280;47810;42.264;23.826;2023-05-03T09:18:58;94225.47;;;16.54;50.90
61870;BME280;47810;42.264;23.826;2023-05-03T09:21:23;94231.22;;;16.27;50.18
61870;BME280;47810;42.264;23.826;2023-05-03T09:23:49;94237.47;;;16.05;50.84
61870;BME280;47810;42.264;23.826;2023-05-03T09:28:53;94235.06;;;15.69;52.19
61870;BME280;47810;42.264;23.826;2023-05-03T09:31:20;94236.75;;;15.58;53.65
61870;BME280;47810;42.264;23.826;2023-05-03T09:33:46;94219.56;;;15.96;52.51
61870;BME280;47810;42.264;23.826;2023-05-03T09:36:11;94213.88;;;16.44;52.13
61870;BME280;47810;42.264;23.826;2023-05-03T09:38:37;94216.56;;;16.97;51.32
61870;BME280;47810;42.264;23.826;2023-05-03T09:41:03;94218.25;;;17.19;50.08
61870;BME280;47810;42.264;23.826;2023-05-03T09:43:31;94225.06;;;17.33;49.88
61870;BME280;47810;42.264;23.826;2023-05-03T09:46:11;94216.50;;;17.09;49.52
61870;BME280;47810;42.264;23.826;2023-05-03T09:48:37;94218.47;;;16.74;50.16
61870;BME280;47810;42.264;23.826;2023-05-03T09:51:03;94230.22;;;16.72;50.66
61870;BME280;47810;42.264;23.826;2023-05-03T09:53:30;94231.19;;;15.73;51.25
61870;BME280;47810;42.264;23.826;2023-05-03T09:55:56;94237.50;;;14.91;52.81
61870;BME280;47810;42.264;23.826;2023-05-03T09:58:22;94232.31;;;14.90;53.76
61870;BME280;47810;42.264;23.826;2023-05-03T10:00:49;94226.16;;;14.54;54.93
61870;BME280;47810;42.264;23.826;2023-05-03T10:03:21;94236.69;;;14.43;55.79
61870;BME280;47810;42.264;23.826;2023-05-03T10:05:49;94229.56;;;14.43;55.14
61870;BME280;47810;42.264;23.826;2023-05-03T10:08:18;94224.22;;;14.56;55.32
61870;BME280;47810;42.264;23.826;2023-05-03T10:10:48;94232.13;;;14.45;55.27
61870;BME280;47810;42.264;23.826;2023-05-03T10:13:16;94230.16;;;14.36;56.10
61870;BME280;47810;42.264;23.826;2023-05-03T10:15:42;94232.47;;;14.16;57.18
61870;BME280;47810;42.264;23.826;2023-05-03T10:18:09;94230.75;;;14.15;57.32
61870;BME280;47810;42.264;23.826;2023-05-03T10:20:42;94222.28;;;14.10;56.80
61870;BME280;47810;42.264;23.826;2023-05-03T10:23:10;94233.59;;;14.01;57.34
61870;BME280;47810;42.264;23.826;2023-05-03T10:25:36;94242.34;;;13.90;57.82
61870;BME280;47810;42.264;23.826;2023-05-03T10:28:06;94240.78;;;13.75;58.09
61870;BME280;47810;42.264;23.826;2023-05-03T10:30:36;94244.91;;;13.66;58.42
61870;BME280;47810;42.264;23.826;2023-05-03T10:35:47;94233.66;;;13.75;58.67
61870;BME280;47810;42.264;23.826;2023-05-03T10:38:18;94238.75;;;13.79;58.06
61870;BME280;47810;42.264;23.826;2023-05-03T10:40:44;94235.44;;;13.88;58.61
61870;BME280;47810;42.264;23.826;2023-05-03T10:45:59;94229.69;;;14.18;58.24
61870;BME280;47810;42.264;23.826;2023-05-03T10:48:27;94243.81;;;14.18;58.25
61870;BME280;47810;42.264;23.826;2023-05-03T10:50:53;94255.13;;;14.09;57.92
61870;BME280;47810;42.264;23.826;2023-05-03T10:53:52;94245.47;;;13.95;58.26
61870;BME280;47810;42.264;23.826;2023-05-03T10:56:12;94251.84;;;13.93;58.36
61870;BME280;47810;42.264;23.826;2023-05-03T11:01:05;94248.19;;;13.70;58.71
61870;BME280;47810;42.264;23.826;2023-05-03T11:05:56;94247.81;;;14.00;57.45
61870;BME280;47810;42.264;23.826;2023-05-03T11:08:22;94238.97;;;13.75;58.12
61870;BME280;47810;42.264;23.826;2023-05-03T11:10:55;94233.63;;;13.88;61.15
61870;BME280;47810;42.264;23.826;2023-05-03T11:13:22;94237.91;;;13.78;59.70
61870;BME280;47810;42.264;23.826;2023-05-03T11:15:47;94226.09;;;13.82;58.51
61870;BME280;47810;42.264;23.826;2023-05-03T11:18:14;94226.00;;;13.84;58.85
61870;BME280;47810;42.264;23.826;2023-05-03T11:20:39;94216.38;;;14.07;58.66
61870;BME280;47810;42.264;23.826;2023-05-03T11:23:05;94211.09;;;14.42;58.91
61870;BME280;47810;42.264;23.826;2023-05-03T11:25:33;94206.00;;;14.39;59.31
61870;BME280;47810;42.264;23.826;2023-05-03T11:28:00;94199.31;;;14.57;59.95
61870;BME280;47810;42.264;23.826;2023-05-03T11:30:27;94197.34;;;14.72;58.28
61870;BME280;47810;42.264;23.826;2023-05-03T11:32:52;94197.84;;;14.77;56.21
61870;BME280;47810;42.264;23.826;2023-05-03T11:35:18;94218.44;;;14.62;56.08
61870;BME280;47810;42.264;23.826;2023-05-03T11:37:46;94194.72;;;14.00;58.29
61870;BME280;47810;42.264;23.826;2023-05-03T11:40:15;94197.03;;;13.81;59.15
61870;BME280;47810;42.264;23.826;2023-05-03T11:42:50;94197.47;;;13.98;58.26
61870;BME280;47810;42.264;23.826;2023-05-03T11:45:17;94204.41;;;14.12;58.12
61870;BME280;47810;42.264;23.826;2023-05-03T11:47:43;94200.81;;;14.13;58.06
61870;BME280;47810;42.264;23.826;2023-05-03T11:50:09;94198.84;;;14.04;58.26
61870;BME280;47810;42.264;23.826;2023-05-03T11:52:35;94186.38;;;13.93;58.25
61870;BME280;47810;42.264;23.826;2023-05-03T11:55:01;94187.03;;;13.84;59.08
61870;BME280;47810;42.264;23.826;2023-05-03T11:57:30;94187.16;;;13.70;59.64
61870;BME280;47810;42.264;23.826;2023-05-03T12:00:08;94183.81;;;13.68;59.54
61870;BME280;47810;42.264;23.826;2023-05-03T12:02:33;94188.69;;;13.61;60.16
61870;BME280;47810;42.264;23.826;2023-05-03T12:05:00;94188.00;;;13.70;62.36
61870;BME280;47810;42.264;23.826;2023-05-03T12:07:26;94183.41;;;13.61;63.34
61870;BME280;47810;42.264;23.826;2023-05-03T12:09:51;94187.41;;;13.54;63.26
61870;BME280;47810;42.264;23.826;2023-05-03T12:12:18;94181.22;;;13.42;64.47
61870;BME280;47810;42.264;23.826;2023-05-03T12:17:32;94174.09;;;13.43;65.55
61870;BME280;47810;42.264;23.826;2023-05-03T12:22:42;94174.31;;;13.14;66.05
61870;BME280;47810;42.264;23.826;2023-05-03T12:25:07;94176.34;;;13.11;67.24
61870;BME280;47810;42.264;23.826;2023-05-03T12:27:33;94159.19;;;13.03;66.10
61870;BME280;47810;42.264;23.826;2023-05-03T12:29:58;94165.63;;;12.87;67.65
61870;BME280;47810;42.264;23.826;2023-05-03T12:32:24;94165.19;;;12.67;68.42
61870;BME280;47810;42.264;23.826;2023-05-03T12:34:49;94156.31;;;12.68;67.23
61870;BME280;47810;42.264;23.826;2023-05-03T12:37:15;94163.72;;;12.76;67.74
61870;BME280;47810;42.264;23.826;2023-05-03T12:39:41;94153.34;;;12.60;68.59
61870;BME280;47810;42.264;23.826;2023-05-03T12:42:07;94163.38;;;12.42;67.55
61870;BME280;47810;42.264;23.826;2023-05-03T12:44:33;94165.78;;;12.32;69.28
61870;BME280;47810;42.264;23.826;2023-05-03T12:46:59;94163.06;;;12.34;68.49
61870;BME280;47810;42.264;23.826;2023-05-03T12:49:24;94176.59;;;12.29;69.37
61870;BME280;47810;42.264;23.826;2023-05-03T12:51:50;94164.06;;;12.19;70.43
61870;BME280;47810;42.264;23.826;2023-05-03T12:54:16;94158.16;;;12.15;70.97
61870;BME280;47810;42.264;23.826;2023-05-03T12:56:41;94171.84;;;11.95;71.70
61870;BME280;47810;42.264;23.826;2023-05-03T12:59:07;94176.94;;;11.98;71.42
61870;BME280;47810;42.264;23.826;2023-05-03T13:01:32;94174.69;;;11.92;71.66
61870;BME280;47810;42.264;23.826;2023-05-03T13:03:58;94182.03;;;11.59;72.66
61870;BME280;47810;42.264;23.826;2023-05-03T13:06:23;94173.09;;;11.48;73.95
61870;BME280;47810;42.264;23.826;2023-05-03T13:08:49;94165.56;;;11.41;74.18
61870;BME280;47810;42.264;23.826;2023-05-03T13:11:15;94155.94;;;11.40;73.93
61870;BME280;47810;42.264;23.826;2023-05-03T13:13:43;94131.75;;;11.32;74.57
61870;BME280;47810;42.264;23.826;2023-05-03T13:16:08;94127.94;;;11.24;75.43
61870;BME280;47810;42.264;23.826;2023-05-03T13:18:34;94136.91;;;11.48;75.91
61870;BME280;47810;42.264;23.826;2023-05-03T13:20:59;94144.25;;;11.57;75.46
61870;BME280;47810;42.264;23.826;2023-05-03T13:23:25;94145.47;;;11.66;74.16
61870;BME280;47810;42.264;23.826;2023-05-03T13:25:50;94143.06;;;11.49;74.36
61870;BME280;47810;42.264;23.826;2023-05-03T13:28:18;94133.75;;;11.43;75.10
61870;BME280;47810;42.264;23.826;2023-05-03T13:30:48;94128.31;;;11.59;75.61
61870;BME280;47810;42.264;23.826;2023-05-03T13:33:14;94131.56;;;11.50;74.62
61870;BME280;47810;42.264;23.826;2023-05-03T13:35:39;94132.97;;;11.68;74.74